Time;durP1;ratioP1;P1;durP2;ratioP2;P2;SDS_P1;SDS_P2;PMS_P1;PMS_P2;Temp;Humidity;BMP_temperature;BMP_pressure;BME280_temperature;BME280_humidity;BME280_pressure;Samples;Min_cycle;Max_cycle;Signal;HPM_P1;HPM_P2
2023/07/31 00:01:03;;;;;;;0.00;0.00;;;;;;;;;;5079819;28;20095;-59
2023/07/31 00:03:30;;;;;;;0.00;0.00;;;;;;;;;;5079231;28;20036;-60
2023/07/31 00:05:57;;;;;;;0.00;0.00;;;;;;;;;;5097905;28;20455;-59
2023/07/31 00:08:24;;;;;;;0.00;0.00;;;;;;;;;;5080765;28;20071;-60
2023/07/31 00:10:52;;;;;;;0.00;0.00;;;;;;;;;;5083030;28;20047;-59
2023/07/31 00:13:19;;;;;;;0.00;0.00;;;;;;;;;;5077405;28;20032;-59
2023/07/31 00:15:46;;;;;;;0.03;0.03;;;;;;;;;;5080781;28;20041;-59
2023/07/31 00:18:15;;;;;;;0.00;0.00;;;;;;;;;;5080934;28;20441;-59
2023/07/31 00:20:42;;;;;;;0.00;0.00;;;;;;;;;;5080317;28;20047;-59
2023/07/31 00:23:09;;;;;;;0.00;0.00;;;;;;;;;;5077507;28;20098;-59
2023/07/31 00:25:36;;;;;;;0.00;0.00;;;;;;;;;;5081086;28;20097;-59
2023/07/31 00:28:03;;;;;;;0.00;0.00;;;;;;;;;;5082208;28;20379;-59
2023/07/31 00:30:30;;;;;;;0.05;0.05;;;;;;;;;;5079446;28;20075;-60
2023/07/31 00:32:57;;;;;;;0.00;0.00;;;;;;;;;;5082174;28;20044;-60
2023/07/31 00:35:26;;;;;;;0.00;0.00;;;;;;;;;;5081874;28;20314;-60
2023/07/31 00:37:53;;;;;;;0.00;0.00;;;;;;;;;;5076320;28;20206;-60
2023/07/31 00:40:20;;;;;;;0.00;0.00;;;;;;;;;;5079260;28;20545;-59
2023/07/31 00:42:47;;;;;;;0.00;0.00;;;;;;;;;;5080100;28;20050;-59
2023/07/31 00:45:15;;;;;;;0.00;0.00;;;;;;;;;;5079157;28;20411;-60
2023/07/31 00:47:42;;;;;;;0.00;0.00;;;;;;;;;;5078518;28;20056;-60
2023/07/31 00:50:10;;;;;;;0.00;0.00;;;;;;;;;;5075541;28;20055;-60
2023/07/31 00:52:38;;;;;;;0.00;0.00;;;;;;;;;;5081428;28;20043;-59
2023/07/31 00:55:06;;;;;;;0.00;0.00;;;;;;;;;;5078824;28;20491;-60
2023/07/31 00:57:33;;;;;;;0.00;0.00;;;;;;;;;;5080158;28;20055;-60
2023/07/31 01:00:00;;;;;;;0.00;0.00;;;;;;;;;;5077064;28;20044;-60
2023/07/31 01:02:27;;;;;;;0.00;0.00;;;;;;;;;;5077176;28;20057;-60
2023/07/31 01:04:54;;;;;;;0.00;0.00;;;;;;;;;;5074466;28;20040;-59
2023/07/31 01:07:23;;;;;;;0.00;0.00;;;;;;;;;;5072436;28;20076;-59
2023/07/31 01:09:55;;;;;;;0.00;0.00;;;;;;;;;;5080647;28;20097;-60
2023/07/31 01:12:22;;;;;;;0.00;0.00;;;;;;;;;;5079721;28;20367;-59
2023/07/31 01:14:52;;;;;;;0.00;0.00;;;;;;;;;;5077411;28;20064;-59
2023/07/31 01:17:19;;;;;;;;;;;;;;;;;;5080674;28;20044;-58
2023/07/31 01:19:46;;;;;;;0.00;0.00;;;;;;;;;;5079632;28;20387;-59
2023/07/31 01:22:17;;;;;;;0.00;0.00;;;;;;;;;;5081841;28;20095;-59
2023/07/31 01:24:50;;;;;;;0.00;0.00;;;;;;;;;;5075173;28;20040;-58
2023/07/31 01:27:18;;;;;;;0.00;0.00;;;;;;;;;;5080044;28;20051;-59
2023/07/31 01:29:47;;;;;;;0.00;0.00;;;;;;;;;;5078161;28;20044;-58
2023/07/31 01:32:14;;;;;;;0.05;0.05;;;;;;;;;;5080126;28;20052;-59
2023/07/31 01:34:42;;;;;;;0.00;0.00;;;;;;;;;;5072648;28;20146;-58
2023/07/31 01:37:09;;;;;;;0.00;0.00;;;;;;;;;;5073001;28;20054;-58
2023/07/31 01:39:36;;;;;;;0.00;0.00;;;;;;;;;;5072605;28;20063;-58
2023/07/31 01:42:04;;;;;;;0.00;0.00;;;;;;;;;;5060854;28;20052;-60
2023/07/31 01:44:35;;;;;;;0.00;0.00;;;;;;;;;;5077277;28;20080;-60
2023/07/31 01:47:05;;;;;;;0.00;0.00;;;;;;;;;;5086342;28;20068;-60
2023/07/31 01:49:33;;;;;;;0.00;0.00;;;;;;;;;;5079173;28;20047;-60
2023/07/31 01:52:01;;;;;;;0.10;0.10;;;;;;;;;;5077730;28;20499;-60
2023/07/31 01:54:28;;;;;;;0.00;0.00;;;;;;;;;;5076492;28;20043;-60
2023/07/31 01:56:55;;;;;;;0.00;0.00;;;;;;;;;;5076637;28;20086;-60
2023/07/31 01:59:22;;;;;;;0.00;0.00;;;;;;;;;;5081034;28;20510;-60
2023/07/31 02:01:51;;;;;;;0.00;0.00;;;;;;;;;;5074880;28;20056;-60
2023/07/31 02:04:18;;;;;;;0.00;0.00;;;;;;;;;;5074812;28;20466;-59
2023/07/31 02:06:45;;;;;;;0.00;0.00;;;;;;;;;;5078809;28;20371;-58
2023/07/31 02:09:12;;;;;;;0.00;0.00;;;;;;;;;;5077535;28;20821;-60
2023/07/31 02:11:39;;;;;;;0.10;0.10;;;;;;;;;;5075829;28;20036;-58
2023/07/31 02:14:06;;;;;;;0.00;0.00;;;;;;;;;;5076308;28;20105;-59
2023/07/31 02:16:34;;;;;;;0.00;0.00;;;;;;;;;;5079120;28;20522;-58
2023/07/31 02:19:03;;;;;;;0.00;0.00;;;;;;;;;;5073623;28;20048;-59
2023/07/31 02:21:30;;;;;;;0.00;0.00;;;;;;;;;;5074594;28;21050;-58
2023/07/31 02:23:57;;;;;;;0.00;0.00;;;;;;;;;;5078675;28;20098;-60
2023/07/31 02:26:24;;;;;;;0.00;0.00;;;;;;;;;;5077670;28;20478;-59
2023/07/31 02:28:51;;;;;;;0.10;0.10;;;;;;;;;;5094460;28;20040;-60
2023/07/31 02:31:18;;;;;;;0.00;0.00;;;;;;;;;;5079960;28;20093;-60
2023/07/31 02:33:46;;;;;;;0.00;0.00;;;;;;;;;;5072451;28;20040;-58
2023/07/31 02:36:14;;;;;;;0.10;0.10;;;;;;;;;;5071801;28;20055;-60
2023/07/31 02:38:41;;;;;;;0.00;0.00;;;;;;;;;;5074461;28;20036;-59
2023/07/31 02:41:08;;;;;;;0.00;0.00;;;;;;;;;;5077236;28;20060;-58
2023/07/31 02:43:36;;;;;;;0.00;0.00;;;;;;;;;;5074862;28;20044;-58
2023/07/31 02:46:03;;;;;;;0.00;0.00;;;;;;;;;;5078521;28;20661;-58
2023/07/31 02:48:30;;;;;;;0.00;0.00;;;;;;;;;;5081686;28;20117;-58
2023/07/31 02:50:57;;;;;;;0.00;0.00;;;;;;;;;;5098439;28;20040;-59
2023/07/31 02:53:26;;;;;;;0.00;0.00;;;;;;;;;;5081654;28;20045;-59
2023/07/31 02:55:53;;;;;;;0.00;0.00;;;;;;;;;;5083408;28;20062;-58
2023/07/31 02:58:20;;;;;;;0.00;0.00;;;;;;;;;;5087702;28;20085;-58
2023/07/31 03:00:47;;;;;;;0.00;0.00;;;;;;;;;;5076022;28;20166;-61
2023/07/31 03:03:14;;;;;;;0.00;0.00;;;;;;;;;;5080915;28;20052;-60
2023/07/31 03:05:41;;;;;;;0.00;0.00;;;;;;;;;;5079585;28;20052;-60
2023/07/31 03:08:08;;;;;;;0.00;0.00;;;;;;;;;;5081583;28;20049;-58
2023/07/31 03:10:37;;;;;;;0.00;0.00;;;;;;;;;;5078362;28;20063;-60
2023/07/31 03:13:05;;;;;;;0.05;0.05;;;;;;;;;;5080549;28;20513;-60
2023/07/31 03:15:34;;;;;;;0.00;0.00;;;;;;;;;;5080153;28;20040;-59
2023/07/31 03:18:01;;;;;;;0.00;0.00;;;;;;;;;;5079431;28;20035;-59
2023/07/31 03:20:28;;;;;;;0.00;0.00;;;;;;;;;;5081145;28;20052;-59
2023/07/31 03:22:55;;;;;;;0.00;0.00;;;;;;;;;;5078217;28;20127;-59
2023/07/31 03:25:25;;;;;;;0.00;0.00;;;;;;;;;;5076412;28;20036;-59
2023/07/31 03:27:52;;;;;;;;;;;;;;;;;;5084237;28;20491;-59
2023/07/31 03:30:20;;;;;;;0.00;0.00;;;;;;;;;;5080401;28;20019;-59
2023/07/31 03:32:48;;;;;;;0.00;0.00;;;;;;;;;;5084553;28;20041;-59
2023/07/31 03:35:15;;;;;;;0.00;0.00;;;;;;;;;;5075326;28;20056;-59
2023/07/31 03:37:42;;;;;;;0.00;0.00;;;;;;;;;;5070459;28;20054;-59
2023/07/31 03:40:10;;;;;;;0.10;0.10;;;;;;;;;;5078709;28;20036;-59
2023/07/31 03:42:37;;;;;;;0.00;0.00;;;;;;;;;;5078926;28;20131;-59
2023/07/31 03:45:05;;;;;;;0.00;0.00;;;;;;;;;;5083641;28;20049;-59
2023/07/31 03:47:33;;;;;;;0.00;0.00;;;;;;;;;;5078830;28;20489;-60
2023/07/31 03:50:00;;;;;;;0.00;0.00;;;;;;;;;;5082243;28;20070;-59
2023/07/31 03:52:28;;;;;;;0.00;0.00;;;;;;;;;;5068710;28;20127;-59
2023/07/31 03:54:55;;;;;;;0.00;0.00;;;;;;;;;;5075473;28;20523;-60
2023/07/31 03:57:22;;;;;;;0.00;0.00;;;;;;;;;;5081077;28;20048;-59
2023/07/31 03:59:49;;;;;;;0.00;0.00;;;;;;;;;;5081890;28;20117;-59
2023/07/31 04:02:18;;;;;;;0.10;0.10;;;;;;;;;;5079438;28;20048;-59
2023/07/31 04:04:47;;;;;;;0.00;0.00;;;;;;;;;;5078573;28;20068;-59
2023/07/31 04:07:14;;;;;;;0.00;0.00;;;;;;;;;;5078453;28;20430;-60
2023/07/31 04:09:41;;;;;;;0.10;0.10;;;;;;;;;;5082102;28;20044;-59
2023/07/31 04:12:08;;;;;;;0.00;0.00;;;;;;;;;;5080836;28;20402;-60
2023/07/31 04:14:35;;;;;;;0.00;0.00;;;;;;;;;;5077533;28;20409;-59
2023/07/31 04:17:02;;;;;;;0.00;0.00;;;;;;;;;;5078498;28;20047;-59
2023/07/31 04:19:29;;;;;;;0.00;0.00;;;;;;;;;;5081632;28;20072;-59
2023/07/31 04:21:58;;;;;;;0.00;0.00;;;;;;;;;;5077278;28;20048;-59
2023/07/31 04:24:25;;;;;;;0.00;0.00;;;;;;;;;;5079530;28;20036;-59
2023/07/31 04:26:52;;;;;;;0.00;0.00;;;;;;;;;;5077963;28;20448;-59
2023/07/31 04:29:20;;;;;;;0.00;0.00;;;;;;;;;;5080425;28;20032;-59
2023/07/31 04:31:47;;;;;;;0.00;0.00;;;;;;;;;;5078403;28;20575;-59
2023/07/31 04:34:14;;;;;;;0.00;0.00;;;;;;;;;;5079660;28;20048;-60
2023/07/31 04:36:41;;;;;;;0.00;0.00;;;;;;;;;;5078997;28;20059;-60
2023/07/31 04:39:09;;;;;;;0.00;0.00;;;;;;;;;;5077922;28;20093;-59
2023/07/31 04:41:37;;;;;;;0.00;0.00;;;;;;;;;;5080725;28;20047;-59
2023/07/31 04:44:04;;;;;;;0.10;0.10;;;;;;;;;;5079169;28;20047;-60
2023/07/31 04:46:31;;;;;;;0.00;0.00;;;;;;;;;;5074380;28;20048;-60
2023/07/31 04:48:58;;;;;;;0.00;0.00;;;;;;;;;;5077778;28;20049;-60
2023/07/31 04:51:25;;;;;;;0.10;0.10;;;;;;;;;;5079786;28;20036;-59
2023/07/31 04:53:53;;;;;;;0.00;0.00;;;;;;;;;;5073735;28;20471;-59
2023/07/31 04:56:21;;;;;;;0.00;0.00;;;;;;;;;;5082725;28;20130;-60
2023/07/31 04:58:48;;;;;;;0.00;0.00;;;;;;;;;;5075878;28;20401;-59
2023/07/31 05:01:15;;;;;;;0.00;0.00;;;;;;;;;;5078278;28;20711;-59
2023/07/31 05:03:42;;;;;;;0.00;0.00;;;;;;;;;;5074261;28;20040;-60
2023/07/31 05:06:09;;;;;;;0.00;0.00;;;;;;;;;;5076237;28;20105;-59
2023/07/31 05:08:37;;;;;;;0.00;0.00;;;;;;;;;;5077762;28;20733;-60
2023/07/31 05:11:04;;;;;;;0.00;0.00;;;;;;;;;;5078422;28;20109;-59
2023/07/31 05:13:32;;;;;;;0.00;0.00;;;;;;;;;;5081783;28;20040;-60
2023/07/31 05:16:02;;;;;;;0.00;0.00;;;;;;;;;;5059011;28;20171;-60
2023/07/31 05:18:29;;;;;;;0.00;0.00;;;;;;;;;;5079260;28;20108;-60
2023/07/31 05:20:56;;;;;;;0.10;0.10;;;;;;;;;;5079610;28;20902;-60
2023/07/31 05:23:23;;;;;;;0.00;0.00;;;;;;;;;;5077444;28;20101;-60
2023/07/31 05:25:50;;;;;;;0.00;0.00;;;;;;;;;;5077050;28;20054;-60
2023/07/31 05:28:17;;;;;;;0.00;0.00;;;;;;;;;;5074710;28;20055;-60
2023/07/31 05:30:46;;;;;;;0.00;0.00;;;;;;;;;;5076778;28;20047;-60
2023/07/31 05:33:13;;;;;;;0.00;0.00;;;;;;;;;;5078288;28;20055;-60
2023/07/31 05:35:40;;;;;;;0.00;0.00;;;;;;;;;;5078331;28;20048;-60
2023/07/31 05:38:07;;;;;;;0.05;0.05;;;;;;;;;;5077617;28;20036;-60
2023/07/31 05:40:35;;;;;;;0.00;0.00;;;;;;;;;;5077760;28;20046;-59
2023/07/31 05:43:02;;;;;;;0.00;0.00;;;;;;;;;;5076225;28;20040;-60
2023/07/31 05:45:29;;;;;;;0.00;0.00;;;;;;;;;;5076206;28;20058;-59
2023/07/31 05:47:59;;;;;;;0.10;0.10;;;;;;;;;;5071593;28;20044;-59
2023/07/31 05:50:26;;;;;;;0.00;0.00;;;;;;;;;;5073899;28;20376;-62
2023/07/31 05:52:53;;;;;;;0.00;0.00;;;;;;;;;;5080829;28;20067;-60
2023/07/31 05:55:20;;;;;;;0.00;0.00;;;;;;;;;;5077805;28;20044;-60
2023/07/31 05:57:47;;;;;;;0.00;0.00;;;;;;;;;;5078710;28;20055;-59
2023/07/31 06:00:15;;;;;;;0.00;0.00;;;;;;;;;;5075983;28;20041;-59
2023/07/31 06:02:42;;;;;;;0.00;0.00;;;;;;;;;;5076960;28;20056;-59
2023/07/31 06:05:10;;;;;;;0.00;0.00;;;;;;;;;;5080711;28;20040;-60
2023/07/31 06:07:37;;;;;;;0.00;0.00;;;;;;;;;;5080011;28;20064;-60
2023/07/31 06:10:05;;;;;;;0.00;0.00;;;;;;;;;;5078391;28;20127;-59
2023/07/31 06:12:32;;;;;;;0.00;0.00;;;;;;;;;;5073814;28;20417;-59
2023/07/31 06:14:59;;;;;;;0.00;0.00;;;;;;;;;;5078824;28;20126;-59
2023/07/31 06:17:27;;;;;;;0.00;0.00;;;;;;;;;;5070951;28;20109;-59
2023/07/31 06:19:54;;;;;;;0.00;0.00;;;;;;;;;;5079038;28;20032;-60
2023/07/31 06:22:22;;;;;;;0.00;0.00;;;;;;;;;;5074280;28;20040;-60
2023/07/31 06:24:49;;;;;;;0.00;0.00;;;;;;;;;;5075782;28;20060;-59
2023/07/31 06:27:17;;;;;;;0.00;0.00;;;;;;;;;;5072973;28;20147;-59
2023/07/31 06:29:44;;;;;;;0.00;0.00;;;;;;;;;;5070099;28;20045;-59
2023/07/31 06:32:11;;;;;;;0.00;0.00;;;;;;;;;;5071861;28;20040;-59
2023/07/31 06:34:38;;;;;;;0.00;0.00;;;;;;;;;;5075541;28;20046;-59
2023/07/31 06:37:05;;;;;;;0.00;0.00;;;;;;;;;;5079231;28;20503;-59
2023/07/31 06:39:34;;;;;;;0.00;0.00;;;;;;;;;;5074505;28;20048;-58
2023/07/31 06:42:02;;;;;;;0.00;0.00;;;;;;;;;;5075121;28;20046;-58
2023/07/31 06:44:29;;;;;;;0.00;0.00;;;;;;;;;;5073957;28;20090;-59
2023/07/31 06:46:57;;;;;;;0.00;0.00;;;;;;;;;;5075060;28;20071;-59
2023/07/31 06:49:24;;;;;;;0.00;0.00;;;;;;;;;;5077083;28;20048;-58
2023/07/31 06:51:51;;;;;;;0.00;0.00;;;;;;;;;;5077677;28;20314;-59
2023/07/31 06:54:18;;;;;;;0.00;0.00;;;;;;;;;;5067896;28;20044;-59
2023/07/31 06:56:47;;;;;;;0.05;0.05;;;;;;;;;;5074499;28;20062;-61
2023/07/31 06:59:14;;;;;;;0.00;0.00;;;;;;;;;;5076810;28;20074;-58
2023/07/31 07:01:41;;;;;;;0.00;0.00;;;;;;;;;;5074807;28;20390;-60
2023/07/31 07:04:08;;;;;;;0.00;0.00;;;;;;;;;;5073854;28;20091;-59
2023/07/31 07:06:35;;;;;;;0.00;0.00;;;;;;;;;;5078600;28;20041;-59
2023/07/31 07:09:03;;;;;;;0.20;0.10;;;;;;;;;;5072589;28;20059;-59
2023/07/31 07:11:30;;;;;;;0.00;0.00;;;;;;;;;;5076889;28;20129;-59
2023/07/31 07:13:58;;;;;;;0.00;0.00;;;;;;;;;;5078506;28;20052;-59
2023/07/31 07:16:25;;;;;;;0.00;0.00;;;;;;;;;;5075396;28;20044;-59
2023/07/31 07:18:51;;;;;;;0.00;0.00;;;;;;;;;;5075048;28;20534;-59
2023/07/31 07:21:19;;;;;;;0.00;0.00;;;;;;;;;;5075167;28;20596;-59
2023/07/31 07:23:46;;;;;;;0.00;0.00;;;;;;;;;;5076802;28;20555;-59
2023/07/31 07:26:13;;;;;;;0.00;0.00;;;;;;;;;;5076841;28;20149;-59
2023/07/31 07:28:42;;;;;;;0.10;0.10;;;;;;;;;;5073173;28;20147;-59
2023/07/31 07:31:10;;;;;;;0.03;0.03;;;;;;;;;;5065928;28;20043;-59
2023/07/31 07:33:37;;;;;;;0.00;0.00;;;;;;;;;;5079551;28;20173;-59
2023/07/31 07:36:09;;;;;;;0.00;0.00;;;;;;;;;;5080108;28;20052;-59
2023/07/31 07:38:36;;;;;;;0.10;0.10;;;;;;;;;;5072992;28;20121;-59
2023/07/31 07:41:03;;;;;;;0.00;0.00;;;;;;;;;;5078350;28;20043;-59
2023/07/31 07:43:31;;;;;;;0.10;0.10;;;;;;;;;;5078231;28;20060;-59
2023/07/31 07:45:58;;;;;;;0.00;0.00;;;;;;;;;;5077878;28;20048;-59
2023/07/31 07:48:26;;;;;;;0.00;0.00;;;;;;;;;;5079195;28;20083;-59
2023/07/31 07:50:54;;;;;;;0.00;0.00;;;;;;;;;;5079700;28;20046;-59
2023/07/31 07:53:21;;;;;;;0.00;0.00;;;;;;;;;;5077951;28;20037;-59
2023/07/31 07:55:48;;;;;;;0.00;0.00;;;;;;;;;;5080050;28;20416;-59
2023/07/31 07:58:15;;;;;;;0.00;0.00;;;;;;;;;;5080880;28;20400;-59
2023/07/31 08:00:42;;;;;;;0.00;0.00;;;;;;;;;;5079241;28;20128;-59
2023/07/31 08:03:09;;;;;;;0.00;0.00;;;;;;;;;;5073937;28;20048;-59
2023/07/31 08:05:38;;;;;;;0.00;0.00;;;;;;;;;;5081028;28;20051;-59
2023/07/31 08:08:05;;;;;;;0.00;0.00;;;;;;;;;;5077848;28;20064;-59
2023/07/31 08:10:32;;;;;;;0.00;0.00;;;;;;;;;;5074351;28;20045;-59
2023/07/31 08:12:59;;;;;;;0.00;0.00;;;;;;;;;;5062359;28;20050;-59
2023/07/31 08:15:27;;;;;;;0.00;0.00;;;;;;;;;;5080034;28;20071;-59
2023/07/31 08:17:54;;;;;;;0.00;0.00;;;;;;;;;;5078890;28;20047;-59
2023/07/31 08:20:21;;;;;;;0.00;0.00;;;;;;;;;;5081678;28;20064;-59
2023/07/31 08:22:50;;;;;;;0.00;0.00;;;;;;;;;;5080302;28;20418;-59
2023/07/31 08:25:17;;;;;;;0.00;0.00;;;;;;;;;;5076023;28;20045;-59
2023/07/31 08:27:45;;;;;;;0.00;0.00;;;;;;;;;;5077001;28;20048;-59
2023/07/31 08:30:12;;;;;;;0.00;0.00;;;;;;;;;;5078791;28;20040;-59
2023/07/31 08:32:39;;;;;;;0.10;0.10;;;;;;;;;;5081863;28;20036;-59
2023/07/31 08:35:07;;;;;;;0.00;0.00;;;;;;;;;;5079755;28;20509;-59
2023/07/31 08:37:34;;;;;;;0.00;0.00;;;;;;;;;;5075020;28;20056;-59
2023/07/31 08:40:03;;;;;;;0.00;0.00;;;;;;;;;;5079915;28;20044;-59
2023/07/31 08:42:30;;;;;;;0.00;0.00;;;;;;;;;;5079212;28;20043;-59
2023/07/31 08:44:57;;;;;;;0.00;0.00;;;;;;;;;;5078411;28;20340;-59
2023/07/31 08:47:24;;;;;;;0.00;0.00;;;;;;;;;;5076236;28;20051;-59
2023/07/31 08:49:51;;;;;;;0.00;0.00;;;;;;;;;;5076610;28;20605;-59
2023/07/31 08:52:18;;;;;;;0.00;0.00;;;;;;;;;;5078386;28;20040;-59
2023/07/31 08:54:47;;;;;;;0.00;0.00;;;;;;;;;;5076734;28;20053;-58
2023/07/31 08:57:15;;;;;;;0.00;0.00;;;;;;;;;;5078706;28;20048;-59
2023/07/31 08:59:43;;;;;;;0.00;0.00;;;;;;;;;;5079864;28;20094;-59
2023/07/31 09:02:11;;;;;;;0.00;0.00;;;;;;;;;;5070900;28;21372;-59
2023/07/31 09:04:38;;;;;;;0.00;0.00;;;;;;;;;;5073425;28;20036;-59
2023/07/31 09:07:05;;;;;;;0.00;0.00;;;;;;;;;;5073213;28;20494;-59
2023/07/31 09:09:33;;;;;;;0.00;0.00;;;;;;;;;;5076759;28;20050;-59
2023/07/31 09:12:00;;;;;;;0.00;0.00;;;;;;;;;;5077989;28;20581;-59
2023/07/31 09:14:28;;;;;;;0.00;0.00;;;;;;;;;;5071957;28;20584;-58
2023/07/31 09:16:56;;;;;;;0.05;0.05;;;;;;;;;;5077518;28;20135;-60
2023/07/31 09:19:26;;;;;;;0.00;0.00;;;;;;;;;;5079494;28;20526;-58
2023/07/31 09:21:53;;;;;;;0.00;0.00;;;;;;;;;;5079850;28;20055;-58
2023/07/31 09:24:26;;;;;;;0.00;0.00;;;;;;;;;;5075158;28;20131;-58
2023/07/31 09:26:54;;;;;;;0.00;0.00;;;;;;;;;;5079864;28;20059;-58
2023/07/31 09:29:21;;;;;;;0.00;0.00;;;;;;;;;;5077817;28;20123;-59
2023/07/31 09:31:50;;;;;;;0.00;0.00;;;;;;;;;;5071738;28;20441;-59
2023/07/31 09:34:17;;;;;;;0.00;0.00;;;;;;;;;;5074577;28;20056;-58
2023/07/31 09:36:45;;;;;;;0.00;0.00;;;;;;;;;;5080685;28;20067;-58
2023/07/31 09:39:12;;;;;;;0.10;0.10;;;;;;;;;;5079351;28;20047;-58
2023/07/31 09:41:39;;;;;;;0.00;0.00;;;;;;;;;;5074440;28;20036;-58
2023/07/31 09:44:07;;;;;;;0.00;0.00;;;;;;;;;;5062782;28;20044;-60
2023/07/31 09:46:36;;;;;;;0.00;0.00;;;;;;;;;;5075463;28;20044;-60
2023/07/31 09:49:10;;;;;;;0.00;0.00;;;;;;;;;;5076213;28;20047;-59
2023/07/31 09:51:39;;;;;;;0.00;0.00;;;;;;;;;;5074883;28;20327;-59
2023/07/31 09:54:11;;;;;;;0.00;0.00;;;;;;;;;;5069195;28;20072;-60
2023/07/31 09:56:39;;;;;;;0.00;0.00;;;;;;;;;;5075594;28;20131;-59
2023/07/31 09:59:07;;;;;;;0.00;0.00;;;;;;;;;;5075760;28;20094;-59
2023/07/31 10:01:34;;;;;;;0.00;0.00;;;;;;;;;;5076706;28;20498;-59
2023/07/31 10:04:01;;;;;;;0.00;0.00;;;;;;;;;;5076887;28;20184;-59
2023/07/31 10:06:33;;;;;;;0.00;0.00;;;;;;;;;;5076749;28;20044;-59
2023/07/31 10:09:03;;;;;;;0.00;0.00;;;;;;;;;;5075991;28;20072;-58
2023/07/31 10:11:30;;;;;;;0.00;0.00;;;;;;;;;;5074807;28;20047;-58
2023/07/31 10:13:57;;;;;;;0.00;0.00;;;;;;;;;;5066366;28;20048;-59
2023/07/31 10:16:24;;;;;;;0.00;0.00;;;;;;;;;;5078593;28;20461;-58
2023/07/31 10:18:51;;;;;;;0.00;0.00;;;;;;;;;;5076376;28;20059;-58
2023/07/31 10:21:19;;;;;;;0.00;0.00;;;;;;;;;;5072002;28;20101;-59
2023/07/31 10:23:48;;;;;;;0.00;0.00;;;;;;;;;;5075665;28;20045;-59
2023/07/31 10:26:17;;;;;;;0.00;0.00;;;;;;;;;;5074524;28;20036;-59
2023/07/31 10:28:45;;;;;;;0.00;0.00;;;;;;;;;;5073254;28;20055;-58
2023/07/31 10:31:12;;;;;;;0.00;0.00;;;;;;;;;;5075951;28;20147;-58
2023/07/31 10:33:39;;;;;;;0.00;0.00;;;;;;;;;;5076911;28;20048;-59
2023/07/31 10:36:16;;;;;;;0.00;0.00;;;;;;;;;;5077286;28;20036;-59
2023/07/31 10:38:43;;;;;;;0.00;0.00;;;;;;;;;;5074420;28;20630;-59
2023/07/31 10:41:12;;;;;;;0.00;0.00;;;;;;;;;;5078462;28;20048;-58
2023/07/31 10:43:39;;;;;;;0.00;0.00;;;;;;;;;;5075633;28;20498;-61
2023/07/31 10:46:09;;;;;;;0.00;0.00;;;;;;;;;;5077408;28;20058;-60
2023/07/31 10:48:36;;;;;;;;;;;;;;;;;;5073751;28;20506;-58
2023/07/31 10:51:07;;;;;;;0.00;0.00;;;;;;;;;;5073614;28;19924;-61
2023/07/31 10:53:34;;;;;;;0.00;0.00;;;;;;;;;;5074276;28;20048;-60
2023/07/31 10:56:02;;;;;;;0.00;0.00;;;;;;;;;;5076032;28;20098;-60
2023/07/31 10:58:31;;;;;;;0.00;0.00;;;;;;;;;;5073191;28;20047;-60
2023/07/31 11:00:58;;;;;;;0.00;0.00;;;;;;;;;;5072426;28;20048;-60
2023/07/31 11:03:26;;;;;;;0.00;0.00;;;;;;;;;;5077878;28;20044;-60
2023/07/31 11:05:54;;;;;;;0.00;0.00;;;;;;;;;;5072926;28;20040;-60
2023/07/31 11:08:22;;;;;;;0.05;0.05;;;;;;;;;;5077020;28;20267;-60
2023/07/31 11:10:49;;;;;;;0.00;0.00;;;;;;;;;;5079306;28;20514;-60
2023/07/31 11:13:17;;;;;;;0.00;0.00;;;;;;;;;;5082299;28;20094;-60
2023/07/31 11:15:45;;;;;;;0.00;0.00;;;;;;;;;;5076994;28;20052;-60
2023/07/31 11:18:12;;;;;;;0.00;0.00;;;;;;;;;;5076562;28;20043;-60
2023/07/31 11:20:40;;;;;;;0.00;0.00;;;;;;;;;;5077488;28;20774;-60
2023/07/31 11:23:08;;;;;;;0.00;0.00;;;;;;;;;;5078227;28;20513;-59
2023/07/31 11:25:35;;;;;;;0.00;0.00;;;;;;;;;;5077419;28;20147;-59
2023/07/31 11:28:05;;;;;;;0.00;0.00;;;;;;;;;;5078585;28;20139;-60
2023/07/31 11:30:32;;;;;;;0.00;0.00;;;;;;;;;;5076686;28;20052;-59
2023/07/31 11:33:02;;;;;;;0.00;0.00;;;;;;;;;;5076973;28;20044;-60
2023/07/31 11:35:30;;;;;;;0.00;0.00;;;;;;;;;;5078876;28;20451;-59
2023/07/31 11:37:57;;;;;;;0.00;0.00;;;;;;;;;;5074805;28;20727;-59
2023/07/31 11:40:28;;;;;;;0.00;0.00;;;;;;;;;;5077747;28;20047;-59
2023/07/31 11:42:56;;;;;;;0.00;0.00;;;;;;;;;;5068415;28;20078;-59
2023/07/31 11:45:25;;;;;;;0.00;0.00;;;;;;;;;;5078525;28;20044;-58
2023/07/31 11:47:52;;;;;;;0.00;0.00;;;;;;;;;;5077760;28;20044;-59
2023/07/31 11:50:21;;;;;;;0.00;0.00;;;;;;;;;;5076069;28;20807;-58
2023/07/31 11:52:49;;;;;;;0.00;0.00;;;;;;;;;;5078956;28;20044;-58
2023/07/31 11:58:04;;;;;;;0.00;0.00;;;;;;;;;;4925066;23;20052;-60
2023/07/31 12:00:32;;;;;;;0.00;0.00;;;;;;;;;;4921317;29;20052;-60
2023/07/31 12:02:59;;;;;;;0.00;0.00;;;;;;;;;;4922815;29;20586;-59
2023/07/31 12:05:27;;;;;;;0.00;0.00;;;;;;;;;;4919660;29;20585;-60
2023/07/31 12:14:53;;;;;;;0.00;0.00;;;;;;;;;;4936047;29;20051;-60
2023/07/31 12:17:22;;;;;;;0.00;0.00;;;;;;;;;;4934554;29;20484;-60
2023/07/31 12:19:51;;;;;;;0.00;0.00;;;;;;;;;;4937361;29;20051;-58
2023/07/31 12:22:21;;;;;;;0.00;0.00;;;;;;;;;;4937185;29;20043;-58
2023/07/31 12:24:48;;;;;;;0.00;0.00;;;;;;;;;;4936084;29;20565;-60
2023/07/31 12:27:18;;;;;;;0.00;0.00;;;;;;;;;;4936598;29;20047;-61
2023/07/31 12:29:48;;;;;;;0.00;0.00;;;;;;;;;;4936693;29;20055;-60
2023/07/31 12:32:22;;;;;;;0.08;0.00;;;;;;;;;;4937682;29;20048;-60
2023/07/31 12:34:51;;;;;;;0.00;0.00;;;;;;;;;;4936062;29;20044;-60
2023/07/31 12:37:20;;;;;;;0.00;0.00;;;;;;;;;;4936764;29;20074;-60
2023/07/31 12:39:47;;;;;;;0.00;0.00;;;;;;;;;;4937022;29;20075;-59
2023/07/31 12:42:15;;;;;;;0.00;0.00;;;;;;;;;;4937076;29;20044;-58
2023/07/31 12:44:42;;;;;;;0.00;0.00;;;;;;;;;;4936741;29;20477;-59
2023/07/31 12:47:09;;;;;;;0.00;0.00;;;;;;;;;;4935826;29;20459;-59
2023/07/31 12:49:36;;;;;;;0.05;0.05;;;;;;;;;;4936831;29;20051;-58
2023/07/31 12:52:04;;;;;;;0.00;0.00;;;;;;;;;;4936717;29;20056;-58
2023/07/31 12:54:32;;;;;;;0.00;0.00;;;;;;;;;;4936466;29;20055;-59
2023/07/31 12:56:59;;;;;;;0.00;0.00;;;;;;;;;;4936345;29;20463;-58
2023/07/31 12:59:27;;;;;;;0.00;0.00;;;;;;;;;;4935253;29;20040;-59
2023/07/31 13:01:54;;;;;;;0.00;0.00;;;;;;;;;;4935997;29;20491;-60
2023/07/31 13:04:21;;;;;;;0.00;0.00;;;;;;;;;;4936335;29;20435;-60
2023/07/31 13:10:43;;;;;;;0.10;0.10;;;;;;;;;;4936240;29;20115;-60
2023/07/31 13:13:10;;;;;;;0.00;0.00;;;;;;;;;;4935078;29;20074;-59
2023/07/31 13:15:37;;;;;;;0.00;0.00;;;;;;;;;;4936700;29;20376;-59
2023/07/31 13:18:04;;;;;;;0.00;0.00;;;;;;;;;;4936586;29;20045;-60
2023/07/31 13:20:32;;;;;;;0.00;0.00;;;;;;;;;;4936498;29;20052;-59
2023/07/31 13:22:59;;;;;;;0.00;0.00;;;;;;;;;;4935239;29;20051;-60
2023/07/31 13:25:26;;;;;;;0.00;0.00;;;;;;;;;;4936276;29;20043;-59
2023/07/31 13:27:55;;;;;;;0.00;0.00;;;;;;;;;;4936328;29;20087;-59
2023/07/31 13:30:22;;;;;;;0.00;0.00;;;;;;;;;;4934743;29;20078;-59
2023/07/31 13:32:52;;;;;;;0.05;0.00;;;;;;;;;;4936228;29;20047;-59
2023/07/31 13:35:19;;;;;;;0.00;0.00;;;;;;;;;;4936492;29;20040;-59
2023/07/31 13:37:46;;;;;;;0.00;0.00;;;;;;;;;;4936625;29;20044;-60
2023/07/31 13:40:13;;;;;;;0.00;0.00;;;;;;;;;;4936007;29;20054;-59
2023/07/31 13:42:40;;;;;;;0.00;0.00;;;;;;;;;;4936111;29;20056;-60
2023/07/31 13:45:09;;;;;;;0.00;0.00;;;;;;;;;;4951059;29;20047;-59
2023/07/31 13:47:37;;;;;;;0.00;0.00;;;;;;;;;;4936041;29;20051;-60
2023/07/31 13:50:04;;;;;;;0.00;0.00;;;;;;;;;;4936084;29;20103;-59
2023/07/31 13:52:31;;;;;;;0.00;0.00;;;;;;;;;;4935905;29;20134;-59
2023/07/31 13:54:58;;;;;;;0.00;0.00;;;;;;;;;;4936264;29;20127;-60
2023/07/31 13:57:25;;;;;;;0.00;0.00;;;;;;;;;;4935667;29;20051;-60
2023/07/31 13:59:55;;;;;;;0.00;0.00;;;;;;;;;;4935921;29;20142;-60
2023/07/31 14:02:24;;;;;;;0.00;0.00;;;;;;;;;;4935794;29;20091;-60
2023/07/31 14:04:51;;;;;;;0.00;0.00;;;;;;;;;;4950739;29;20059;-60
2023/07/31 14:07:18;;;;;;;0.00;0.00;;;;;;;;;;4935336;29;20047;-60
2023/07/31 14:09:45;;;;;;;0.00;0.00;;;;;;;;;;4935813;29;20418;-60
2023/07/31 14:12:13;;;;;;;0.00;0.00;;;;;;;;;;4935656;29;20051;-60
2023/07/31 14:14:40;;;;;;;0.00;0.00;;;;;;;;;;4935627;29;20490;-60
2023/07/31 14:17:07;;;;;;;0.00;0.00;;;;;;;;;;4934915;29;20040;-60
2023/07/31 14:19:36;;;;;;;0.00;0.00;;;;;;;;;;4935432;29;20036;-60
2023/07/31 14:22:03;;;;;;;0.00;0.00;;;;;;;;;;4935347;29;20047;-60
2023/07/31 14:24:30;;;;;;;0.00;0.00;;;;;;;;;;4935959;29;20047;-59
2023/07/31 14:26:57;;;;;;;0.00;0.00;;;;;;;;;;4935625;29;20399;-60
2023/07/31 14:29:24;;;;;;;0.00;0.00;;;;;;;;;;4935582;29;20118;-59
2023/07/31 14:31:52;;;;;;;0.17;0.00;;;;;;;;;;4935889;29;20121;-59
2023/07/31 14:34:19;;;;;;;0.00;0.00;;;;;;;;;;4935339;29;20052;-60
2023/07/31 14:36:47;;;;;;;0.00;0.00;;;;;;;;;;4935237;29;20044;-60
2023/07/31 14:39:14;;;;;;;0.00;0.00;;;;;;;;;;4934170;29;20139;-60
2023/07/31 14:41:42;;;;;;;0.00;0.00;;;;;;;;;;4934846;29;20570;-59
2023/07/31 14:44:09;;;;;;;0.00;0.00;;;;;;;;;;4935231;29;20044;-60
2023/07/31 14:50:32;;;;;;;0.00;0.00;;;;;;;;;;4935411;29;20523;-60
2023/07/31 14:52:59;;;;;;;;;;;;;;;;;;4935552;29;20051;-60
2023/07/31 14:55:28;;;;;;;0.00;0.00;;;;;;;;;;4933863;29;19975;-60
2023/07/31 14:57:55;;;;;;;0.00;0.00;;;;;;;;;;4934652;29;20056;-59
2023/07/31 15:00:24;;;;;;;0.00;0.00;;;;;;;;;;4934928;29;20051;-59
2023/07/31 15:02:51;;;;;;;0.00;0.00;;;;;;;;;;4933453;29;20051;-61